createdAt,value
2018-04-02T00:00:07.110Z,17.73
2018-04-02T00:02:34.566Z,18.63
2018-04-02T00:05:02.055Z,19.33
2018-04-02T00:07:29.526Z,18.17
2018-04-02T00:09:57.018Z,18.95
2018-04-02T00:12:24.466Z,20.80
2018-04-02T00:14:51.948Z,19.27
2018-04-02T00:17:19.647Z,18.23
2018-04-02T00:19:47.148Z,18.70
2018-04-02T00:22:14.616Z,20.20
2018-04-02T00:24:42.095Z,16.73
2018-04-02T00:27:09.561Z,17.50
2018-04-02T00:29:37.063Z,18.70
2018-04-02T00:32:04.548Z,18.40
2018-04-02T00:34:32.022Z,19.13
2018-04-02T00:36:59.478Z,18.93
2018-04-02T00:39:27.729Z,18.80
2018-04-02T00:41:55.206Z,19.87
2018-04-02T00:44:22.678Z,18.63
2018-04-02T00:46:50.130Z,18.10
2018-04-02T00:49:17.632Z,18.65
2018-04-02T00:51:45.078Z,20.63
2018-04-02T00:54:12.579Z,20.83
2018-04-02T00:56:40.830Z,22.15
2018-04-02T00:59:08.307Z,21.03
2018-04-02T01:01:35.795Z,21.90
2018-04-02T01:04:03.272Z,21.20
2018-04-02T01:06:30.738Z,20.53
2018-04-02T01:08:58.228Z,19.52
2018-04-02T01:11:26.472Z,21.60
2018-04-02T01:13:54.117Z,22.33
2018-04-02T01:16:22.347Z,22.17
2018-04-02T01:18:51.347Z,20.12
2018-04-02T01:21:18.911Z,21.62
2018-04-02T01:23:46.395Z,23.00
2018-04-02T01:26:13.890Z,22.48
2018-04-02T01:28:41.392Z,23.27
2018-04-02T01:31:08.896Z,25.42
2018-04-02T01:33:36.380Z,23.92
2018-04-02T01:36:03.875Z,24.52
2018-04-02T01:38:31.619Z,24.17
2018-04-02T01:40:59.104Z,24.65
2018-04-02T01:43:27.362Z,23.33
2018-04-02T01:45:54.875Z,25.00
2018-04-02T01:48:23.114Z,25.92
2018-04-02T01:50:50.624Z,26.33
2018-04-02T01:53:18.864Z,22.23
2018-04-02T01:55:46.361Z,25.27
2018-04-02T01:58:13.838Z,24.12
2018-04-02T02:00:42.095Z,24.73
2018-04-02T02:03:09.583Z,22.55
2018-04-02T02:05:37.074Z,25.50
2018-04-02T02:08:05.338Z,25.85
2018-04-02T02:10:32.854Z,25.73
2018-04-02T02:13:00.366Z,25.23
2018-04-02T02:15:27.847Z,23.90
2018-04-02T02:17:55.340Z,24.42
2018-04-02T02:20:23.599Z,21.75
2018-04-02T02:22:51.080Z,21.98
2018-04-02T02:25:18.579Z,23.00
2018-04-02T02:27:46.836Z,21.30
2018-04-02T02:30:14.336Z,22.80
2018-04-02T02:32:41.817Z,23.90
2018-04-02T02:35:09.310Z,21.83
2018-04-02T02:37:36.799Z,22.92
2018-04-02T02:40:04.283Z,24.20
2018-04-02T02:42:33.280Z,23.73
2018-04-02T02:45:00.775Z,22.65
2018-04-02T02:47:29.028Z,24.05
2018-04-02T02:49:56.532Z,26.15
2018-04-02T02:52:24.008Z,22.23
2018-04-02T02:54:52.262Z,25.92
2018-04-02T02:57:19.746Z,25.80
2018-04-02T02:59:47.252Z,25.00
2018-04-02T03:02:14.736Z,19.55
2018-04-02T03:04:42.235Z,23.67
2018-04-02T03:07:09.716Z,24.45
2018-04-02T03:09:37.207Z,29.45
2018-04-02T03:12:05.459Z,26.40
2018-04-02T03:14:32.956Z,25.05
2018-04-02T03:17:00.430Z,25.90
2018-04-02T03:19:28.695Z,26.45
2018-04-02T03:21:56.174Z,26.60
2018-04-02T03:24:23.682Z,30.42
2018-04-02T03:26:51.158Z,22.25
2018-04-02T03:29:18.644Z,28.70
2018-04-02T03:31:46.140Z,27.45
2018-04-02T03:34:13.623Z,25.70
2018-04-02T03:36:41.111Z,26.85
2018-04-02T03:39:09.439Z,25.27
2018-04-02T03:41:36.934Z,29.60
2018-04-02T03:44:04.410Z,26.95
2018-04-02T03:46:31.904Z,29.25
2018-04-02T03:49:00.146Z,30.30
2018-04-02T03:51:27.649Z,31.00
2018-04-02T03:53:55.141Z,31.75
2018-04-02T03:56:23.394Z,32.33
2018-04-02T03:58:50.888Z,30.10
2018-04-02T04:01:18.362Z,30.37
2018-04-02T04:03:46.642Z,28.62
2018-04-02T04:06:15.626Z,30.02
2018-04-02T04:08:43.106Z,31.85
2018-04-02T04:11:10.600Z,26.67
2018-04-02T04:13:38.850Z,31.15
2018-04-02T04:16:06.347Z,28.45
2018-04-02T04:18:34.582Z,26.92
2018-04-02T04:21:02.079Z,30.27
2018-04-02T04:23:29.558Z,28.30
2018-04-02T04:25:57.050Z,24.12
2018-04-02T04:28:25.306Z,26.75
2018-04-02T04:30:52.791Z,26.23
2018-04-02T04:33:21.038Z,26.80
2018-04-02T04:35:48.535Z,28.73
2018-04-02T04:38:16.029Z,30.17
2018-04-02T04:40:43.501Z,32.03
2018-04-02T04:43:11.746Z,35.38
2018-04-02T04:45:39.234Z,38.30
2018-04-02T04:48:06.729Z,34.33
2018-04-02T04:50:34.986Z,34.92
2018-04-02T04:53:02.483Z,37.67
2018-04-02T04:55:30.738Z,39.03
2018-04-02T04:57:58.214Z,35.80
2018-04-02T05:00:25.706Z,29.90
2018-04-02T05:02:53.946Z,32.92
2018-04-02T05:05:21.434Z,31.12
2018-04-02T05:07:48.918Z,31.67
2018-04-02T05:10:16.401Z,37.70
2018-04-02T05:12:44.642Z,34.28
2018-04-02T05:15:12.129Z,30.12
2018-04-02T05:17:39.614Z,33.00
2018-04-02T05:20:07.095Z,37.65
2018-04-02T05:22:35.342Z,36.15
2018-04-02T05:25:02.826Z,28.20
2018-04-02T05:27:30.306Z,28.38
2018-04-02T05:29:57.802Z,26.58
2018-04-02T05:32:26.042Z,30.60
2018-04-02T05:34:53.539Z,31.85
2018-04-02T05:37:21.021Z,31.25
2018-04-02T05:39:49.266Z,30.30
2018-04-02T05:42:16.766Z,29.55
2018-04-02T05:44:45.022Z,28.95
2018-04-02T05:47:12.509Z,27.73
2018-04-02T05:49:39.991Z,30.30
2018-04-02T05:52:08.251Z,32.47
2018-04-02T05:54:35.736Z,32.70
2018-04-02T05:57:03.222Z,29.60
2018-04-02T05:59:31.461Z,31.70
2018-04-02T06:01:58.953Z,32.58
2018-04-02T06:04:26.433Z,34.72
2018-04-02T06:06:53.919Z,37.33
2018-04-02T06:09:21.393Z,35.25
2018-04-02T06:11:49.642Z,39.08
2018-04-02T06:14:17.124Z,37.25
2018-04-02T06:16:44.622Z,32.55
2018-04-02T06:19:12.862Z,37.20
2018-04-02T06:21:40.382Z,31.30
2018-04-02T06:24:08.625Z,32.28
2018-04-02T06:26:36.135Z,28.67
2018-04-02T06:29:04.377Z,27.23
2018-04-02T06:31:31.905Z,24.35
2018-04-02T06:33:59.346Z,23.20
2018-04-02T06:36:27.609Z,26.95
2018-04-02T06:38:55.098Z,45.12
2018-04-02T06:41:23.354Z,32.00
2018-04-02T06:43:50.835Z,25.27
2018-04-02T06:46:18.328Z,28.65
2018-04-02T06:48:45.778Z,31.00
2018-04-02T06:51:13.270Z,24.80
2018-04-02T06:53:41.529Z,26.17
2018-04-02T06:56:08.992Z,26.93
2018-04-02T06:58:36.443Z,21.87
2018-04-02T07:01:04.670Z,25.07
2018-04-02T07:03:32.127Z,27.50
2018-04-02T07:05:59.598Z,34.07
2018-04-02T07:08:27.045Z,30.83
2018-04-02T07:10:54.515Z,26.83
2018-04-02T07:13:21.969Z,22.77
2018-04-02T07:15:50.194Z,24.50
2018-04-02T07:18:17.642Z,23.80
2018-04-02T07:20:45.106Z,24.10
2018-04-02T07:23:12.558Z,24.73
2018-04-02T07:25:40.793Z,22.67
2018-04-02T07:28:08.255Z,25.10
2018-04-02T07:30:35.722Z,25.83
2018-04-02T07:33:03.176Z,28.07
2018-04-02T07:35:30.634Z,25.67
2018-04-02T07:37:58.087Z,21.43
2018-04-02T07:40:26.324Z,19.47
2018-04-02T07:42:53.768Z,21.33
2018-04-02T07:45:21.235Z,21.73
2018-04-02T07:47:48.698Z,22.37
2018-04-02T07:50:16.150Z,22.10
2018-04-02T07:52:44.384Z,20.70
2018-04-02T07:55:11.846Z,20.70
2018-04-02T07:57:39.307Z,18.77
2018-04-02T08:00:06.772Z,20.87
2018-04-02T08:02:34.230Z,18.53
2018-04-02T08:05:01.679Z,18.43
2018-04-02T08:07:29.905Z,16.73
2018-04-02T08:09:57.358Z,18.80
2018-04-02T08:12:24.832Z,14.77
2018-04-02T08:14:52.325Z,16.30
2018-04-02T08:17:19.790Z,15.63
2018-04-02T08:19:47.242Z,13.03
2018-04-02T08:22:14.719Z,13.20
2018-04-02T08:24:42.166Z,12.37
2018-04-02T08:27:09.734Z,13.37
2018-04-02T08:29:37.954Z,13.87
2018-04-02T08:32:05.426Z,12.70
2018-04-02T08:34:32.878Z,11.80
2018-04-02T08:37:00.339Z,11.00
2018-04-02T08:42:02.554Z,14.20
2018-04-02T08:44:30.010Z,12.80
2018-04-02T08:46:57.474Z,11.83
2018-04-02T08:49:24.930Z,10.37
2018-04-02T08:51:53.163Z,9.97
2018-04-02T08:54:20.617Z,9.87
2018-04-02T08:56:48.077Z,10.67
2018-04-02T08:59:15.533Z,10.00
2018-04-02T09:01:43.774Z,10.27
2018-04-02T09:04:11.227Z,10.00
2018-04-02T09:06:38.690Z,9.67
2018-04-02T09:09:06.137Z,8.97
2018-04-02T09:11:34.608Z,12.07
2018-04-02T09:14:02.830Z,9.23
2018-04-02T09:16:30.294Z,10.37
2018-04-02T09:18:57.782Z,10.27
2018-04-02T09:21:25.242Z,9.23
2018-04-02T09:23:52.690Z,9.13
2018-04-02T09:26:20.154Z,8.73
2018-04-02T09:28:47.615Z,26.47
2018-04-02T09:31:15.837Z,17.87
2018-04-02T09:33:43.294Z,10.53
2018-04-02T09:36:10.735Z,9.80
2018-04-02T09:38:38.966Z,9.07
2018-04-02T09:41:06.422Z,9.70
2018-04-02T09:43:33.877Z,9.80
2018-04-02T09:46:01.321Z,9.73
2018-04-02T09:48:29.558Z,8.33
2018-04-02T09:50:57.006Z,10.27
2018-04-02T09:53:24.465Z,9.13
2018-04-02T09:55:53.670Z,10.53
2018-04-02T09:58:21.885Z,9.50
2018-04-02T10:00:49.333Z,9.63
2018-04-02T10:03:16.810Z,10.20
2018-04-02T10:05:44.262Z,10.57
2018-04-02T10:08:12.514Z,10.00
2018-04-02T10:10:39.961Z,10.50
2018-04-02T10:13:07.422Z,12.03
2018-04-02T10:15:34.895Z,33.50
2018-04-02T10:18:02.365Z,11.03
2018-04-02T10:20:30.120Z,13.20
2018-04-02T10:22:58.327Z,9.00
2018-04-02T10:25:25.771Z,9.57
2018-04-02T10:27:53.227Z,8.87
2018-04-02T10:30:21.438Z,10.20
2018-04-02T10:32:48.898Z,8.47
2018-04-02T10:35:16.350Z,10.13
2018-04-02T10:37:44.669Z,8.27
2018-04-02T10:40:12.118Z,7.70
2018-04-02T10:42:39.577Z,7.43
2018-04-02T10:45:07.786Z,7.70
2018-04-02T10:47:35.242Z,8.93
2018-04-02T10:50:02.685Z,6.63
2018-04-02T10:52:30.147Z,6.27
2018-04-02T10:54:58.390Z,7.00
2018-04-02T10:57:25.850Z,6.43
2018-04-02T10:59:53.359Z,6.63
2018-04-02T11:02:21.530Z,4.70
2018-04-02T11:04:48.977Z,5.70
2018-04-02T11:07:16.435Z,5.80
2018-04-02T11:09:43.882Z,6.03
2018-04-02T11:12:12.116Z,4.73
2018-04-02T11:14:39.582Z,6.40
2018-04-02T11:17:07.035Z,4.93
2018-04-02T11:19:34.490Z,6.80
2018-04-02T11:22:01.951Z,6.87
2018-04-02T11:24:30.171Z,6.60
2018-04-02T11:26:57.627Z,5.77
2018-04-02T11:29:25.083Z,5.90
2018-04-02T11:31:52.552Z,6.27
2018-04-02T11:34:20.007Z,5.30
2018-04-02T11:36:48.230Z,7.40
2018-04-02T11:39:15.678Z,6.33
2018-04-02T11:41:43.172Z,6.27
2018-04-02T11:44:10.610Z,6.03
2018-04-02T11:46:38.837Z,5.23
2018-04-02T11:49:06.392Z,7.17
2018-04-02T11:51:33.850Z,7.77
2018-04-02T11:54:01.317Z,6.07
2018-04-02T11:56:28.767Z,5.30
2018-04-02T11:58:56.996Z,7.00
2018-04-02T12:01:24.443Z,6.33
2018-04-02T12:03:51.931Z,6.50
2018-04-02T12:06:19.395Z,5.90
2018-04-02T12:08:46.868Z,5.70
2018-04-02T12:11:15.081Z,5.63
2018-04-02T12:13:42.551Z,5.00
2018-04-02T12:16:09.999Z,6.10
2018-04-02T12:18:37.458Z,4.47
2018-04-02T12:21:04.970Z,6.70
2018-04-02T12:23:32.375Z,5.10
2018-04-02T12:25:59.833Z,4.40
2018-04-02T12:28:28.156Z,4.10
2018-04-02T12:30:55.607Z,4.90
2018-04-02T12:33:23.073Z,3.57
2018-04-02T12:35:50.515Z,3.97
2018-04-02T12:38:18.747Z,5.17
2018-04-02T12:40:46.201Z,4.10
2018-04-02T12:43:13.680Z,4.20
2018-04-02T12:45:41.106Z,5.00
2018-04-02T12:48:09.360Z,4.77
2018-04-02T12:50:36.794Z,5.60
2018-04-02T12:53:04.255Z,5.23
2018-04-02T12:55:31.703Z,5.60
2018-04-02T12:57:59.927Z,6.67
2018-04-02T13:00:27.380Z,3.43
2018-04-02T13:02:54.852Z,4.70
2018-04-02T13:05:22.358Z,3.93
2018-04-02T13:07:49.827Z,6.40
2018-04-02T13:10:17.282Z,3.60
2018-04-02T13:12:44.744Z,4.10
2018-04-02T13:15:12.195Z,4.70
2018-04-02T13:17:39.655Z,5.37
2018-04-02T13:20:07.876Z,3.70
2018-04-02T13:22:35.348Z,3.33
2018-04-02T13:25:02.792Z,4.30
2018-04-02T13:27:30.260Z,3.43
2018-04-02T13:29:57.706Z,4.23
2018-04-02T13:32:25.938Z,4.67
2018-04-02T13:34:53.396Z,3.70
2018-04-02T13:37:20.863Z,2.90
2018-04-02T13:39:48.466Z,3.40
2018-04-02T13:42:15.918Z,5.53
2018-04-02T13:44:44.947Z,4.47
2018-04-02T13:47:12.410Z,3.83
2018-04-02T13:49:39.879Z,5.10
2018-04-02T13:52:07.358Z,6.27
2018-04-02T13:54:34.825Z,3.77
2018-04-02T13:57:02.287Z,3.83
2018-04-02T13:59:29.746Z,4.07
2018-04-02T14:01:57.194Z,3.67
2018-04-02T14:04:24.662Z,5.00
2018-04-02T14:06:52.114Z,5.63
2018-04-02T14:09:19.586Z,6.50
2018-04-02T14:11:47.030Z,4.40
2018-04-02T14:14:15.264Z,8.03
2018-04-02T14:16:42.722Z,4.00
2018-04-02T14:19:10.180Z,3.93
2018-04-02T14:21:37.626Z,4.53
2018-04-02T14:24:05.859Z,4.77
2018-04-02T14:26:33.311Z,5.80
2018-04-02T14:29:00.771Z,3.90
2018-04-02T14:31:28.224Z,4.73
2018-04-02T14:33:56.452Z,3.10
2018-04-02T14:36:23.903Z,3.57
2018-04-02T14:38:51.366Z,4.33
2018-04-02T14:41:18.813Z,4.20
2018-04-02T14:43:47.042Z,2.70
2018-04-02T14:46:14.499Z,4.00
2018-04-02T14:48:41.960Z,3.13
2018-04-02T14:51:10.185Z,3.53
2018-04-02T14:53:37.639Z,3.23
2018-04-02T14:56:05.098Z,4.30
2018-04-02T14:58:32.556Z,3.77
2018-04-02T15:01:00.003Z,3.73
2018-04-02T15:03:28.234Z,2.70
2018-04-02T15:05:55.678Z,2.73
2018-04-02T15:08:23.142Z,3.77
2018-04-02T15:10:50.591Z,3.63
2018-04-02T15:13:18.820Z,3.37
2018-04-02T15:15:46.274Z,2.70
2018-04-02T15:18:13.727Z,2.20
2018-04-02T15:20:41.934Z,2.70
2018-04-02T15:23:09.398Z,3.50
2018-04-02T15:25:36.844Z,2.87
2018-04-02T15:28:05.071Z,2.10
2018-04-02T15:30:32.521Z,3.13
2018-04-02T15:32:59.982Z,2.07
2018-04-02T15:35:27.438Z,3.40
2018-04-02T15:37:55.670Z,2.33
2018-04-02T15:40:23.117Z,3.20
2018-04-02T15:42:50.586Z,2.23
2018-04-02T15:45:18.014Z,3.00
2018-04-02T15:47:45.478Z,2.30
2018-04-02T15:50:12.926Z,2.47
2018-04-02T15:52:40.374Z,2.70
2018-04-02T15:55:07.898Z,3.27
2018-04-02T15:57:36.153Z,2.97
2018-04-02T16:00:03.680Z,2.53
2018-04-02T16:02:31.890Z,2.57
2018-04-02T16:04:59.346Z,3.67
2018-04-02T16:07:26.815Z,2.47
2018-04-02T16:09:54.276Z,3.40
2018-04-02T16:12:21.731Z,2.13
2018-04-02T16:14:49.969Z,3.43
2018-04-02T16:17:17.418Z,3.10
2018-04-02T16:19:44.875Z,3.80
2018-04-02T16:22:12.326Z,2.30
2018-04-02T16:24:40.541Z,3.37
2018-04-02T16:27:08.006Z,5.13
2018-04-02T16:29:35.459Z,3.60
2018-04-02T16:32:02.914Z,4.63
2018-04-02T16:34:31.117Z,3.47
2018-04-02T16:36:58.579Z,2.73
2018-04-02T16:39:26.026Z,3.70
2018-04-02T16:41:54.254Z,3.73
2018-04-02T16:44:21.702Z,2.90
2018-04-02T16:46:49.166Z,4.00
2018-04-02T16:49:17.386Z,4.33
2018-04-02T16:51:44.855Z,4.70
2018-04-02T16:54:12.302Z,4.57
2018-04-02T16:56:39.766Z,4.90
2018-04-02T16:59:07.209Z,4.40
2018-04-02T17:01:35.437Z,4.03
2018-04-02T17:04:02.886Z,5.80
2018-04-02T17:06:30.347Z,4.00
2018-04-02T17:08:58.557Z,4.40
2018-04-02T17:11:26.031Z,3.00
2018-04-02T17:13:53.530Z,4.97
2018-04-02T17:16:20.979Z,3.07
2018-04-02T17:18:48.443Z,3.77
2018-04-02T17:21:15.885Z,4.63
2018-04-02T17:23:44.120Z,6.63
2018-04-02T17:26:11.574Z,5.00
2018-04-02T17:28:39.030Z,3.30
2018-04-02T17:31:06.483Z,6.13
2018-04-02T17:33:33.943Z,5.23
2018-04-02T17:36:02.154Z,4.37
2018-04-02T17:38:29.611Z,4.97
2018-04-02T17:40:57.079Z,39.07
2018-04-02T17:43:25.291Z,6.17
2018-04-02T17:45:52.738Z,3.80
2018-04-02T17:48:20.198Z,4.80
2018-04-02T17:50:48.414Z,2.90
2018-04-02T17:53:15.875Z,3.27
2018-04-02T17:55:43.338Z,3.50
2018-04-02T17:58:10.799Z,2.83
2018-04-02T18:00:39.022Z,4.37
2018-04-02T18:03:06.487Z,3.07
2018-04-02T18:05:33.931Z,5.00
2018-04-02T18:08:01.378Z,4.50
2018-04-02T18:10:29.615Z,4.37
2018-04-02T18:12:57.062Z,3.43
2018-04-02T18:15:24.566Z,4.37
2018-04-02T18:17:52.026Z,4.03
2018-04-02T18:20:19.490Z,6.67
2018-04-02T18:22:46.917Z,4.93
2018-04-02T18:25:14.379Z,4.97
2018-04-02T18:27:42.594Z,4.77
2018-04-02T18:30:10.058Z,8.90
2018-04-02T18:32:37.510Z,8.57
2018-04-02T18:35:04.970Z,8.63
2018-04-02T18:37:33.178Z,8.67
2018-04-02T18:40:00.630Z,6.67
2018-04-02T18:42:28.216Z,9.03
2018-04-02T18:44:56.446Z,9.27
2018-04-02T18:47:23.902Z,9.03
2018-04-02T18:49:51.359Z,8.47
2018-04-02T18:52:18.810Z,7.63
2018-04-02T18:54:47.030Z,7.13
2018-04-02T18:57:14.478Z,9.47
2018-04-02T18:59:41.946Z,9.03
2018-04-02T19:02:09.392Z,8.80
2018-04-02T19:04:36.857Z,6.77
2018-04-02T19:07:05.065Z,5.03
2018-04-02T19:09:32.524Z,6.77
2018-04-02T19:11:59.970Z,6.73
2018-04-02T19:14:28.318Z,4.70
2018-04-02T19:16:55.758Z,3.90
2018-04-02T19:19:23.219Z,5.67
2018-04-02T19:21:50.675Z,4.17
2018-04-02T19:24:18.898Z,4.70
2018-04-02T19:26:46.364Z,5.67
2018-04-02T19:29:13.815Z,8.37
2018-04-02T19:31:41.259Z,8.43
2018-04-02T19:34:09.489Z,4.90
2018-04-02T19:36:36.938Z,4.13
2018-04-02T19:39:04.420Z,4.70
2018-04-02T19:41:31.862Z,4.30
2018-04-02T19:44:00.079Z,6.87
2018-04-02T19:46:27.540Z,8.07
2018-04-02T19:48:54.981Z,5.77
2018-04-02T19:51:23.202Z,4.70
2018-04-02T19:53:50.653Z,4.30
2018-04-02T19:56:18.132Z,5.57
2018-04-02T19:58:45.580Z,5.70
2018-04-02T20:01:13.819Z,8.07
2018-04-02T20:03:41.279Z,5.83
2018-04-02T20:06:08.742Z,5.83
2018-04-02T20:08:36.186Z,5.50
2018-04-02T20:11:03.701Z,7.17
2018-04-02T20:13:31.130Z,6.67
2018-04-02T20:15:58.605Z,6.27
2018-04-02T20:18:26.065Z,6.57
2018-04-02T20:20:53.535Z,6.97
2018-04-02T20:23:20.995Z,8.57
2018-04-02T20:25:48.487Z,6.40
2018-04-02T20:28:15.926Z,6.27
2018-04-02T20:30:43.390Z,5.40
2018-04-02T20:33:11.606Z,5.97
2018-04-02T20:35:39.184Z,5.83
2018-04-02T20:38:06.631Z,6.23
2018-04-02T20:40:34.100Z,5.60
2018-04-02T20:43:01.543Z,5.27
2018-04-02T20:45:29.770Z,5.10
2018-04-02T20:47:57.239Z,4.67
2018-04-02T20:50:24.687Z,5.83
2018-04-02T20:52:52.146Z,4.70
2018-04-02T20:55:20.484Z,4.60
2018-04-02T20:57:47.943Z,4.00
2018-04-02T21:00:15.405Z,7.37
2018-04-02T21:02:42.887Z,5.60
2018-04-02T21:05:10.331Z,25.57
2018-04-02T21:07:37.795Z,20.03
2018-04-02T21:10:05.246Z,8.03
2018-04-02T21:12:33.462Z,4.73
2018-04-02T21:15:00.923Z,8.60
2018-04-02T21:17:28.374Z,6.17
2018-04-02T21:19:55.834Z,5.57
2018-04-02T21:22:24.059Z,5.87
2018-04-02T21:24:51.526Z,6.53
2018-04-02T21:27:18.987Z,7.30
2018-04-02T21:29:46.446Z,5.23
2018-04-02T21:32:13.942Z,7.50
2018-04-02T21:34:41.498Z,4.63
2018-04-02T21:37:08.937Z,6.27
2018-04-02T21:39:37.149Z,8.13
2018-04-02T21:42:04.617Z,5.67
2018-04-02T21:44:32.071Z,4.73
2018-04-02T21:47:00.304Z,4.23
2018-04-02T21:49:27.758Z,5.80
2018-04-02T21:51:55.218Z,5.93
2018-04-02T21:54:22.675Z,4.30
2018-04-02T21:56:50.142Z,4.90
2018-04-02T21:59:17.586Z,5.57
2018-04-02T22:01:45.058Z,5.87
2018-04-02T22:04:13.267Z,5.20
2018-04-02T22:06:52.481Z,4.77
2018-04-02T22:09:21.448Z,6.43
2018-04-02T22:11:48.910Z,15.27
2018-04-02T22:14:16.359Z,6.30
2018-04-02T22:16:43.818Z,4.40
2018-04-02T22:19:11.267Z,4.43
2018-04-02T22:21:39.487Z,4.70
2018-04-02T22:24:06.946Z,5.00
2018-04-02T22:26:34.407Z,5.73
2018-04-02T22:29:02.615Z,4.37
2018-04-02T22:31:30.094Z,3.83
2018-04-02T22:33:57.542Z,5.33
2018-04-02T22:36:24.986Z,4.23
2018-04-02T22:38:53.214Z,5.33
2018-04-02T22:41:20.655Z,4.20
2018-04-02T22:43:48.878Z,3.33
2018-04-02T22:46:16.339Z,4.03
2018-04-02T22:48:43.795Z,4.20
2018-04-02T22:51:11.247Z,4.10
2018-04-02T22:53:39.463Z,4.07
2018-04-02T22:56:06.906Z,4.63
2018-04-02T22:58:35.130Z,4.40
2018-04-02T23:01:02.577Z,4.20
2018-04-02T23:03:30.040Z,15.03
2018-04-02T23:05:57.490Z,17.23
2018-04-02T23:08:25.710Z,6.00
2018-04-02T23:10:53.158Z,3.93
2018-04-02T23:13:20.622Z,5.03
2018-04-02T23:15:48.835Z,5.33
2018-04-02T23:18:16.294Z,3.40
2018-04-02T23:20:43.738Z,3.70
2018-04-02T23:23:11.211Z,3.87
2018-04-02T23:25:39.422Z,3.87
2018-04-02T23:28:06.874Z,3.97
2018-04-02T23:30:35.095Z,3.20
2018-04-02T23:33:02.544Z,4.17
2018-04-02T23:35:29.998Z,6.10
2018-04-02T23:37:58.216Z,4.97
2018-04-02T23:40:25.678Z,3.60
2018-04-02T23:42:53.118Z,3.50
2018-04-02T23:45:21.341Z,6.17
2018-04-02T23:47:48.798Z,4.53
2018-04-02T23:50:16.258Z,3.67
2018-04-02T23:52:43.709Z,4.40
2018-04-02T23:55:11.230Z,5.07
2018-04-02T23:57:38.683Z,4.37
